sim
Sign-in with your pilot id or email,
or register
Callsign
Passwort

Schedule Details

Flight Number: DLH2400
Departure: Munich Airport (EDDM) at 18:00
Arrival: Basel Mulhouse-Freiburg EuroAirport (LFSB) at 18:55
Route: Lufthansa Passenger Schedule. Enter filed route here before submitting Pirep.

Weather Information
Getting current METAR information for EDDM 280850Z VRB01KT 9999 -RA FEW005 BKN045 07/06 Q1011 NOSIG
Getting current METAR information for LFSB 280830Z 12005KT 080V150 9999 FEW025 BKN060 12/06 Q1011 NOSIG

Schedule Frequency

Route Map